Time;durP1;ratioP1;P1;durP2;ratioP2;P2;SDS_P1;SDS_P2;PMS_P1;PMS_P2;Temp;Humidity;BMP_temperature;BMP_pressure;BME280_temperature;BME280_humidity;BME280_pressure;Samples;Min_cycle;Max_cycle;Signal;HPM_P1;HPM_P2
2022/09/23 00:00:09;;;;;;;11.10;6.82;;;;;;;10.64;94.41;101681.53;5072647;28;20036;-62
2022/09/23 00:02:34;;;;;;;10.13;6.70;;;;;;;10.69;94.66;101673.69;5072338;28;20043;-62
2022/09/23 00:04:59;;;;;;;10.10;6.15;;;;;;;10.68;94.35;101667.59;5072727;28;20661;-61
2022/09/23 00:07:25;;;;;;;11.15;7.20;;;;;;;10.69;93.83;101666.72;5072570;28;20048;-61
2022/09/23 00:09:50;;;;;;;9.73;6.80;;;;;;;10.71;94.13;101670.22;5072504;28;20080;-63
2022/09/23 00:12:16;;;;;;;9.18;6.30;;;;;;;10.71;94.80;101670.22;5072479;28;20028;-63
2022/09/23 00:14:42;;;;;;;8.85;6.68;;;;;;;10.65;94.38;101656.25;5072455;28;20035;-62
2022/09/23 00:17:07;;;;;;;10.07;6.50;;;;;;;10.72;94.13;101671.09;5072404;28;20029;-63
2022/09/23 00:19:33;;;;;;;11.00;6.95;;;;;;;10.67;94.70;101662.34;5072405;28;20360;-62
2022/09/23 00:21:58;;;;;;;10.70;7.00;;;;;;;10.69;94.69;101668.47;5072175;28;20070;-63
2022/09/23 00:24:24;;;;;;;10.15;6.63;;;;;;;10.67;94.51;101665.84;5072028;28;20056;-63
2022/09/23 00:26:49;;;;;;;8.63;6.60;;;;;;;10.65;94.85;101658.84;5071923;28;20040;-63
2022/09/23 00:29:15;;;;;;;10.90;6.88;;;;;;;10.62;94.59;101651.00;5071132;28;20102;-62
2022/09/23 00:31:40;;;;;;;9.57;6.95;;;;;;;10.60;94.70;101653.63;5072158;28;20060;-62
2022/09/23 00:34:05;;;;;;;9.13;6.93;;;;;;;10.57;95.04;101648.38;5072255;28;20127;-63
2022/09/23 00:36:31;;;;;;;9.75;7.45;;;;;;;10.54;94.91;101656.25;5071568;28;20064;-61
2022/09/23 00:38:56;;;;;;;9.55;7.28;;;;;;;10.57;95.04;101653.63;5071952;28;20044;-62
2022/09/23 00:41:22;;;;;;;12.07;7.90;;;;;;;10.57;94.94;101647.50;5071880;28;20047;-62
2022/09/23 00:43:57;;;;;;;11.68;8.00;;;;;;;10.58;94.91;101657.97;5072322;28;20086;-62
2022/09/23 00:46:53;;;;;;;12.50;8.15;;;;;;;10.55;94.73;101655.38;5071548;28;20471;-63
2022/09/23 00:49:26;;;;;;;11.40;8.40;;;;;;;10.52;94.55;101641.44;5068095;28;20058;-64
2022/09/23 00:51:57;;;;;;;11.00;8.02;;;;;;;10.53;94.47;101643.16;5071779;28;20037;-62
2022/09/23 00:54:26;;;;;;;11.43;8.65;;;;;;;10.51;94.58;101637.94;5071895;28;20054;-62
2022/09/23 00:56:51;;;;;;;13.82;8.40;;;;;;;10.49;94.62;101639.69;5071718;28;20482;-62
2022/09/23 00:59:17;;;;;;;12.10;9.05;;;;;;;10.47;94.95;101646.66;5071960;28;20083;-62
2022/09/23 01:01:43;;;;;;;11.65;9.18;;;;;;;10.44;94.93;101642.28;5071583;28;20440;-63
2022/09/23 01:04:08;;;;;;;14.25;9.75;;;;;;;10.39;94.88;101637.94;5071408;28;20032;-63
2022/09/23 01:06:34;;;;;;;15.48;10.27;;;;;;;10.32;94.97;101638.81;5071705;28;20036;-64
2022/09/23 01:08:59;;;;;;;13.00;9.63;;;;;;;10.34;95.02;101637.94;5071537;28;20414;-63
2022/09/23 01:11:45;;;;;;;13.80;9.95;;;;;;;10.35;94.47;101638.81;5071696;28;20066;-63
2022/09/23 01:14:33;;;;;;;15.68;9.82;;;;;;;10.41;94.28;101633.56;5070310;28;20028;-62
2022/09/23 01:17:52;;;;;;;11.55;9.88;;;;;;;10.45;93.98;101636.19;5071399;28;20036;-61
2022/09/23 01:20:27;;;;;;;14.38;10.50;;;;;;;10.40;94.22;101632.69;4989313;28;20092;-63
2022/09/23 01:23:11;;;;;;;14.45;10.23;;;;;;;10.28;94.60;101630.06;5069509;28;20048;-63
2022/09/23 01:26:00;;;;;;;14.25;10.15;;;;;;;10.29;94.52;101631.81;5071522;28;20095;-63
2022/09/23 01:29:04;;;;;;;14.50;10.20;;;;;;;10.31;94.21;101635.31;5071611;28;20478;-62
2022/09/23 01:31:59;;;;;;;12.82;10.27;;;;;;;10.30;94.41;101635.31;5062535;28;20052;-62
2022/09/23 01:34:48;;;;;;;15.00;10.95;;;;;;;10.23;94.58;101623.97;5071459;28;20032;-61
2022/09/23 01:37:30;;;;;;;15.77;10.77;;;;;;;10.09;94.79;101610.84;5071254;28;20020;-62
2022/09/23 01:40:13;;;;;;;14.38;10.43;;;;;;;10.10;95.14;101624.78;5071075;28;20044;-63
2022/09/23 01:42:42;;;;;;;15.73;11.25;;;;;;;10.11;94.95;101618.69;5071015;28;20241;-62
2022/09/23 01:45:15;;;;;;;12.23;9.98;;;;;;;10.01;94.45;101617.84;5071443;28;20043;-63
2022/09/23 01:47:49;;;;;;;13.02;10.90;;;;;;;10.00;95.67;101623.94;5071178;28;20155;-63
2022/09/23 01:53:22;;;;;;;14.20;11.07;;;;;;;9.96;95.55;101623.91;5071440;28;20513;-62
2022/09/23 01:55:52;;;;;;;14.48;10.57;;;;;;;9.97;95.94;101620.44;5071184;28;20107;-61
2022/09/23 01:58:25;;;;;;;14.35;10.68;;;;;;;9.93;96.19;101623.91;5071002;28;20036;-63
2022/09/23 02:00:56;;;;;;;13.57;11.38;;;;;;;9.98;96.42;101619.56;5070824;28;20497;-63
2022/09/23 02:03:31;;;;;;;16.23;11.75;;;;;;;9.93;96.41;101614.31;5071188;28;20051;-63
2022/09/23 02:06:03;;;;;;;13.85;11.15;;;;;;;10.05;96.29;101613.44;5071139;28;20067;-63
2022/09/23 02:08:34;;;;;;;16.45;11.85;;;;;;;10.06;96.11;101615.19;5071046;28;20040;-62
2022/09/23 02:11:06;;;;;;;14.30;11.43;;;;;;;10.08;96.37;101613.47;5071038;28;20032;-62
2022/09/23 02:14:18;;;;;;;13.82;11.25;;;;;;;10.10;96.02;101615.22;5070752;28;20337;-62
2022/09/23 02:16:46;;;;;;;15.52;11.00;;;;;;;10.05;96.22;101605.59;5060184;28;20045;-63
2022/09/23 02:19:29;;;;;;;15.80;11.38;;;;;;;10.11;96.01;101613.47;5070811;28;20040;-62
2022/09/23 02:22:02;;;;;;;15.88;11.48;;;;;;;10.11;96.12;101600.38;5070936;28;20036;-62
2022/09/23 02:24:31;;;;;;;16.90;11.77;;;;;;;10.06;96.51;101596.88;5072392;28;20055;-63
2022/09/23 02:27:21;;;;;;;14.30;11.27;;;;;;;10.16;95.75;101609.13;5074714;28;20036;-63
2022/09/23 02:29:56;;;;;;;16.90;11.82;;;;;;;10.16;96.21;101597.78;5074301;28;20039;-62
2022/09/23 02:32:30;;;;;;;15.77;11.05;;;;;;;10.16;95.87;101603.88;5074456;28;20037;-63
2022/09/23 02:34:59;;;;;;;14.38;11.30;;;;;;;10.13;95.71;101594.28;5074276;28;20033;-62
2022/09/23 02:37:46;;;;;;;13.88;10.73;;;;;;;10.05;95.72;101585.56;5074329;28;20048;-63
2022/09/23 02:40:25;;;;;;;13.88;10.88;;;;;;;10.10;95.34;101581.22;5074180;28;20485;-62
2022/09/23 02:43:03;;;;;;;15.13;11.60;;;;;;;10.10;95.90;101582.94;5074158;28;20024;-62
2022/09/23 02:45:29;;;;;;;13.10;11.48;;;;;;;10.01;95.91;101572.50;5074305;28;20128;-63
2022/09/23 02:48:03;;;;;;;15.23;11.15;;;;;;;9.94;96.13;101570.75;5074147;28;20135;-62
2022/09/23 02:50:29;;;;;;;15.25;11.38;;;;;;;9.89;96.28;101573.34;5073802;28;20456;-62
2022/09/23 02:52:55;;;;;;;14.45;11.10;;;;;;;9.79;96.75;101569.00;5074101;28;20055;-61
2022/09/23 02:55:24;;;;;;;16.25;11.20;;;;;;;9.76;97.09;101561.13;5073826;28;20040;-62
2022/09/23 02:57:49;;;;;;;16.38;12.05;;;;;;;9.75;97.16;101565.50;5074010;28;20041;-63
2022/09/23 03:00:15;;;;;;;13.52;11.38;;;;;;;9.73;97.21;101563.75;5073919;28;20033;-62
2022/09/23 03:03:05;;;;;;;15.98;11.50;;;;;;;9.73;96.73;101555.91;5073843;28;20032;-62
2022/09/23 03:05:38;;;;;;;14.88;11.52;;;;;;;9.75;96.97;101559.38;5073496;28;20482;-63
2022/09/23 03:08:47;;;;;;;17.25;10.82;;;;;;;9.71;96.81;101552.41;5073935;28;20032;-63
2022/09/23 03:11:14;;;;;;;14.85;11.43;;;;;;;9.69;97.01;101562.03;5073686;28;20036;-62
2022/09/23 03:14:03;;;;;;;15.95;11.70;;;;;;;9.62;96.95;101552.41;5073688;28;20040;-62
2022/09/23 03:16:39;;;;;;;15.25;11.50;;;;;;;9.65;97.19;101558.53;5073626;28;20459;-63
2022/09/23 03:19:14;;;;;;;14.15;11.15;;;;;;;9.60;97.38;101557.63;5073687;28;20047;-63
2022/09/23 03:21:57;;;;;;;14.18;10.82;;;;;;;9.56;97.26;101550.66;5073073;28;20047;-62
2022/09/23 03:24:24;;;;;;;14.05;11.40;;;;;;;9.50;97.63;101540.19;5073452;28;20066;-63
2022/09/23 03:26:52;;;;;;;13.15;10.18;;;;;;;9.48;97.87;101544.56;5073652;28;20135;-63
2022/09/23 03:29:19;;;;;;;17.08;11.10;;;;;;;9.50;97.49;101545.44;5073470;28;20178;-62
2022/09/23 03:31:45;;;;;;;15.90;10.98;;;;;;;9.52;97.47;101543.69;5073271;28;20024;-60
2022/09/23 03:34:17;;;;;;;14.18;10.88;;;;;;;9.49;97.77;101546.28;5073355;28;20040;-62
2022/09/23 03:36:51;;;;;;;14.93;10.63;;;;;;;9.50;97.62;101541.94;5072409;28;20136;-62
2022/09/23 03:39:30;;;;;;;14.15;10.65;;;;;;;9.46;97.14;101550.63;5073248;28;20142;-62
2022/09/23 03:42:02;;;;;;;14.00;10.07;;;;;;;9.42;97.04;101542.78;5073049;28;20032;-63
2022/09/23 03:44:28;;;;;;;15.52;10.18;;;;;;;9.41;96.03;101541.03;5073099;28;20063;-63
2022/09/23 03:46:57;;;;;;;13.43;9.90;;;;;;;9.32;96.36;101538.41;5072781;28;20468;-62
2022/09/23 03:49:26;;;;;;;15.65;10.05;;;;;;;9.34;96.72;101541.03;5072632;28;20029;-63
2022/09/23 03:51:52;;;;;;;13.98;10.38;;;;;;;9.29;96.16;101533.19;5072873;28;20071;-62
2022/09/23 03:54:19;;;;;;;11.95;9.32;;;;;;;9.34;96.62;101534.06;5072584;28;20042;-62
2022/09/23 03:56:46;;;;;;;12.50;9.68;;;;;;;9.27;97.10;101529.69;5052818;28;20349;-62
2022/09/23 03:59:13;;;;;;;14.30;9.85;;;;;;;9.30;97.20;101537.53;5052574;28;20033;-63
2022/09/23 04:01:40;;;;;;;14.23;9.48;;;;;;;9.27;97.36;101540.13;5052280;28;20453;-63
2022/09/23 04:04:06;;;;;;;14.02;10.07;;;;;;;9.26;97.24;101533.16;5052539;28;20029;-63
2022/09/23 04:06:31;;;;;;;12.73;9.38;;;;;;;9.25;97.27;101533.16;5052737;28;20029;-62
2022/09/23 04:08:57;;;;;;;14.20;9.98;;;;;;;9.22;97.41;101536.63;5052588;28;20399;-62
2022/09/23 04:11:23;;;;;;;11.10;9.20;;;;;;;9.24;96.45;101528.81;5067179;28;20036;-62
2022/09/23 04:13:48;;;;;;;13.20;9.57;;;;;;;9.15;96.51;101519.22;5072425;28;20028;-62
2022/09/23 04:16:13;;;;;;;13.25;9.77;;;;;;;9.16;97.15;101530.53;5072366;28;20514;-63
2022/09/23 04:18:38;;;;;;;14.77;9.82;;;;;;;9.16;97.36;101538.38;5072428;28;20032;-63
2022/09/23 04:21:04;;;;;;;12.85;10.15;;;;;;;9.16;97.37;101526.19;5072135;28;20105;-63
2022/09/23 04:23:29;;;;;;;11.90;9.50;;;;;;;9.13;97.92;101527.91;5072405;28;20043;-63
2022/09/23 04:25:54;;;;;;;13.40;10.50;;;;;;;9.07;98.04;101524.41;5072279;28;20039;-63
2022/09/23 04:28:21;;;;;;;11.95;9.55;;;;;;;9.15;98.12;101539.22;5072174;28;20063;-61
2022/09/23 04:30:47;;;;;;;11.73;9.25;;;;;;;9.12;97.44;101529.63;5071874;28;20036;-61
2022/09/23 04:33:14;;;;;;;10.88;9.23;;;;;;;9.11;97.16;101535.72;5072239;28;20036;-62
2022/09/23 04:35:42;;;;;;;12.02;9.60;;;;;;;9.07;97.51;101537.44;5072161;28;20125;-62
2022/09/23 04:38:09;;;;;;;12.95;9.60;;;;;;;9.07;97.88;101531.34;5072133;28;20028;-63
2022/09/23 04:40:35;;;;;;;12.65;9.55;;;;;;;9.12;97.73;101534.00;5072032;28;20064;-62
2022/09/23 04:43:00;;;;;;;12.80;9.40;;;;;;;9.11;97.23;101524.41;5057118;28;20128;-62
2022/09/23 04:45:26;;;;;;;12.55;9.30;;;;;;;9.10;97.88;101520.94;5060295;28;20370;-63
2022/09/23 04:47:51;;;;;;;14.10;9.75;;;;;;;9.11;97.97;101527.03;5071438;28;20056;-62
2022/09/23 04:50:16;;;;;;;10.05;8.75;;;;;;;9.08;98.08;101527.88;5072018;28;20040;-63
2022/09/23 04:52:42;;;;;;;14.05;9.43;;;;;;;9.07;97.95;101526.13;5071929;28;20043;-62
2022/09/23 04:55:08;;;;;;;12.43;9.13;;;;;;;9.08;97.56;101530.50;5071604;28;20039;-62
2022/09/23 04:57:33;;;;;;;12.32;9.00;;;;;;;9.07;97.94;101515.69;5071873;28;20028;-62
2022/09/23 04:59:59;;;;;;;13.33;9.53;;;;;;;9.14;98.38;101516.59;5071699;28;20470;-62
2022/09/23 05:02:24;;;;;;;11.23;9.02;;;;;;;9.16;98.15;101513.13;5071638;28;20043;-61
2022/09/23 05:04:49;;;;;;;9.98;8.93;;;;;;;9.18;97.57;101513.97;5071631;28;20093;-63
2022/09/23 05:07:17;;;;;;;12.95;8.73;;;;;;;9.16;97.95;101509.63;5071782;28;20044;-64
2022/09/23 05:09:43;;;;;;;13.60;9.27;;;;;;;9.18;97.81;101513.97;5071445;28;20042;-62
2022/09/23 05:12:08;;;;;;;11.30;9.02;;;;;;;9.05;97.79;101501.75;5071813;28;20115;-63
2022/09/23 05:14:34;;;;;;;11.95;8.88;;;;;;;9.15;97.92;101513.13;5071448;28;20050;-64
2022/09/23 05:16:59;;;;;;;15.18;9.88;;;;;;;9.17;97.97;101512.25;5071536;28;20086;-62
2022/09/23 05:19:24;;;;;;;17.13;9.38;;;;;;;9.16;97.39;101510.50;5071501;28;20355;-63
2022/09/23 05:21:50;;;;;;;12.50;8.90;;;;;;;9.15;96.86;101514.00;5071611;28;20037;-62
2022/09/23 05:24:15;;;;;;;14.60;9.00;;;;;;;9.18;98.06;101513.13;5071765;28;20518;-63
2022/09/23 05:26:41;;;;;;;10.90;8.57;;;;;;;9.24;97.95;101523.56;5071531;28;20037;-62
2022/09/23 05:29:07;;;;;;;14.32;9.07;;;;;;;9.19;97.74;101518.31;5071461;28;20040;-62
2022/09/23 05:31:33;;;;;;;12.73;7.95;;;;;;;9.24;97.44;101516.63;5071410;28;20123;-62
2022/09/23 05:34:01;;;;;;;13.25;8.75;;;;;;;9.22;97.40;101518.34;5071328;28;20127;-61
2022/09/23 05:36:28;;;;;;;13.23;8.75;;;;;;;9.27;97.75;101531.44;5071634;28;20040;-62
2022/09/23 05:38:55;;;;;;;11.73;8.43;;;;;;;9.23;97.71;101517.47;5071021;28;20032;-62
2022/09/23 05:41:21;;;;;;;11.75;8.55;;;;;;;9.30;97.09;101531.44;5070654;28;20435;-62
2022/09/23 05:43:47;;;;;;;17.80;9.52;;;;;;;9.37;97.19;101525.34;5071183;28;20297;-62
2022/09/23 05:46:18;;;;;;;14.32;8.55;;;;;;;9.41;96.27;101532.31;5071190;28;20141;-62
2022/09/23 05:48:45;;;;;;;13.55;8.90;;;;;;;9.46;95.24;101532.34;5071263;28;20037;-62
2022/09/23 05:51:17;;;;;;;13.73;8.60;;;;;;;9.47;95.11;101528.88;5071316;28;20036;-62
2022/09/23 05:53:46;;;;;;;15.13;9.13;;;;;;;9.54;94.83;101539.31;5070888;28;20033;-63
2022/09/23 05:56:13;;;;;;;12.20;8.60;;;;;;;9.54;95.78;101531.47;5071007;28;20153;-64
2022/09/23 05:58:40;;;;;;;14.65;9.05;;;;;;;9.59;95.52;101534.09;5071282;28;20133;-64
2022/09/23 06:01:12;;;;;;;16.95;9.32;;;;;;;9.64;95.78;101537.59;5075073;28;20423;-65
2022/09/23 06:03:38;;;;;;;13.73;9.48;;;;;;;9.67;96.51;101541.09;5071768;28;20042;-63
2022/09/23 06:06:04;;;;;;;13.82;8.80;;;;;;;9.71;94.85;101540.22;5074529;28;20115;-63
2022/09/23 06:08:30;;;;;;;12.88;9.05;;;;;;;9.76;94.35;101535.00;5074773;28;20028;-61
2022/09/23 06:10:56;;;;;;;10.82;8.77;;;;;;;9.83;93.23;101530.66;5074864;28;20032;-61
2022/09/23 06:13:21;;;;;;;11.32;8.45;;;;;;;9.86;92.96;101530.66;5072774;28;20058;-61
2022/09/23 06:15:46;;;;;;;12.98;8.77;;;;;;;9.96;92.71;101527.19;5074795;28;20040;-61
2022/09/23 06:18:11;;;;;;;13.82;8.50;;;;;;;10.02;92.32;101527.19;5074181;28;20033;-63
2022/09/23 06:20:38;;;;;;;11.80;8.32;;;;;;;10.05;93.09;101530.66;5074595;28;20029;-64
2022/09/23 06:23:04;;;;;;;13.20;8.52;;;;;;;10.07;92.96;101525.41;5074605;28;20032;-63
2022/09/23 06:25:33;;;;;;;14.70;8.80;;;;;;;10.10;92.26;101534.13;5074422;28;20056;-62
2022/09/23 06:27:59;;;;;;;11.70;8.60;;;;;;;10.11;93.15;101516.69;5070988;28;20056;-62
2022/09/23 06:30:25;;;;;;;15.95;9.00;;;;;;;10.23;91.88;101531.53;5054237;28;20044;-63
2022/09/23 06:32:52;;;;;;;15.23;8.73;;;;;;;10.25;92.53;101528.06;5054463;28;20243;-62
2022/09/23 06:35:19;;;;;;;12.82;8.65;;;;;;;10.32;91.57;101526.31;5054511;28;20044;-63
2022/09/23 06:37:45;;;;;;;15.38;9.18;;;;;;;10.32;90.37;101515.84;5054230;28;20033;-63
2022/09/23 06:40:10;;;;;;;17.13;8.63;;;;;;;10.40;90.63;101519.31;5054139;28;20040;-63
2022/09/23 06:42:35;;;;;;;12.70;8.70;;;;;;;10.39;89.64;101523.66;5054279;28;20037;-63
2022/09/23 06:45:01;;;;;;;13.05;8.73;;;;;;;10.46;90.45;101529.78;5059093;28;20036;-63
2022/09/23 06:47:27;;;;;;;16.35;8.70;;;;;;;10.51;90.04;101520.19;5062592;28;20067;-63
2022/09/23 06:49:53;;;;;;;13.10;8.90;;;;;;;10.55;89.84;101524.53;5063169;28;20051;-64
2022/09/23 06:52:19;;;;;;;13.68;8.70;;;;;;;10.54;90.34;101529.78;5064423;28;20032;-63
2022/09/23 06:54:46;;;;;;;13.00;8.30;;;;;;;10.61;89.95;101527.13;5062300;28;20040;-63
2022/09/23 06:57:12;;;;;;;18.08;8.70;;;;;;;10.68;89.61;101518.38;5055688;28;20475;-63
2022/09/23 06:59:37;;;;;;;13.85;8.10;;;;;;;10.74;90.01;101520.09;5053936;28;20033;-62
2022/09/23 07:02:02;;;;;;;12.05;8.30;;;;;;;10.80;89.31;101520.94;5053996;28;20090;-63
2022/09/23 07:04:27;;;;;;;12.45;7.95;;;;;;;10.84;88.11;101519.19;5054310;28;20043;-62
2022/09/23 07:06:54;;;;;;;16.33;8.13;;;;;;;10.86;87.66;101521.81;5053845;28;20075;-63
2022/09/23 07:09:19;;;;;;;12.68;8.23;;;;;;;10.92;87.87;101529.63;5053727;28;20120;-62
2022/09/23 07:11:46;;;;;;;14.18;8.07;;;;;;;10.89;87.16;101511.34;5052162;28;20033;-62
2022/09/23 07:14:12;;;;;;;12.48;8.05;;;;;;;11.02;87.05;101513.00;5053656;28;20044;-62
2022/09/23 07:16:38;;;;;;;15.27;8.38;;;;;;;11.01;86.33;101503.41;5053800;28;20043;-62
2022/09/23 07:19:03;;;;;;;16.13;8.95;;;;;;;11.05;85.81;101508.63;5053575;28;20032;-62
2022/09/23 07:21:28;;;;;;;13.88;8.95;;;;;;;11.15;86.07;101510.31;5053316;28;20459;-62
2022/09/23 07:23:56;;;;;;;14.05;9.45;;;;;;;11.23;85.95;101507.69;5053185;28;20390;-62
2022/09/23 07:26:22;;;;;;;13.80;8.60;;;;;;;11.28;85.25;101511.13;5053325;28;20387;-63
2022/09/23 07:28:55;;;;;;;13.25;8.38;;;;;;;11.40;85.58;101515.44;5053366;28;20432;-62
2022/09/23 07:31:21;;;;;;;11.25;7.70;;;;;;;11.50;85.08;101512.75;5053463;28;20111;-62
2022/09/23 07:33:47;;;;;;;10.80;7.95;;;;;;;11.60;84.67;101517.94;5053201;28;20112;-63
2022/09/23 07:36:16;;;;;;;13.10;8.55;;;;;;;11.66;84.64;101510.00;5053078;28;20037;-62
2022/09/23 07:38:41;;;;;;;11.50;7.82;;;;;;;11.72;84.12;101509.97;5053195;28;20065;-62
2022/09/23 07:41:10;;;;;;;13.75;8.40;;;;;;;11.73;82.88;101507.34;5052967;28;20083;-63
2022/09/23 07:43:36;;;;;;;12.60;8.55;;;;;;;11.83;83.13;101519.53;5052923;28;20111;-62
2022/09/23 07:46:07;;;;;;;13.82;8.82;;;;;;;11.95;82.57;101512.47;5052681;28;20044;-62
2022/09/23 07:48:33;;;;;;;13.90;8.70;;;;;;;12.06;82.53;101513.22;5052950;28;20123;-62
2022/09/23 07:50:59;;;;;;;14.95;8.98;;;;;;;12.13;82.79;101505.28;5052628;28;20036;-61
2022/09/23 07:53:25;;;;;;;12.60;8.27;;;;;;;12.24;82.08;101517.44;5052834;28;20040;-63
2022/09/23 07:55:55;;;;;;;11.43;7.90;;;;;;;12.31;81.43;101508.59;5052809;28;20044;-62
2022/09/23 07:58:21;;;;;;;13.80;8.55;;;;;;;12.43;80.79;101524.25;5052956;28;20032;-62
2022/09/23 08:00:47;;;;;;;14.18;8.55;;;;;;;12.44;81.34;101505.00;5052771;28;20033;-62
2022/09/23 08:03:13;;;;;;;12.23;8.05;;;;;;;12.56;80.26;101515.34;5052673;28;20025;-62
2022/09/23 08:05:38;;;;;;;14.18;8.07;;;;;;;12.61;79.58;101516.19;5052516;28;20044;-63
2022/09/23 08:08:06;;;;;;;12.82;7.32;;;;;;;12.65;80.12;101515.25;5051639;28;20037;-62
2022/09/23 08:10:31;;;;;;;12.15;7.97;;;;;;;12.70;79.33;101516.06;5052609;28;20057;-62
2022/09/23 08:12:57;;;;;;;13.88;7.78;;;;;;;12.75;79.03;101513.41;5052769;28;20087;-62
2022/09/23 08:15:22;;;;;;;12.50;7.95;;;;;;;12.81;78.70;101519.44;5052516;28;20503;-63
2022/09/23 08:17:48;;;;;;;13.70;7.72;;;;;;;12.83;78.62;101514.16;5052151;28;20036;-61
2022/09/23 08:20:43;;;;;;;12.60;7.47;;;;;;;12.86;77.51;101520.25;5052002;28;20082;-61
2022/09/23 08:22:58;;;;;;;13.10;7.70;;;;;;;12.94;77.56;101509.66;5051600;28;20033;-63
2022/09/23 08:25:25;;;;;;;11.05;7.38;;;;;;;13.13;78.50;101521.69;5052368;28;20384;-62
2022/09/23 08:27:51;;;;;;;11.90;7.28;;;;;;;13.30;77.17;101518.84;5051912;28;20036;-62
2022/09/23 08:30:16;;;;;;;12.18;7.22;;;;;;;13.45;77.00;101529.16;5051833;28;20474;-62
2022/09/23 08:32:41;;;;;;;11.30;7.20;;;;;;;13.52;76.31;101519.41;5052165;28;20032;-62
2022/09/23 08:35:07;;;;;;;11.35;6.97;;;;;;;13.63;75.88;101516.63;5052098;28;20043;-64
2022/09/23 08:37:32;;;;;;;12.02;7.75;;;;;;;13.60;75.88;101512.28;5052182;28;20372;-62
2022/09/23 08:39:58;;;;;;;12.20;7.03;;;;;;;13.65;75.27;101515.72;5052884;28;20033;-63
2022/09/23 08:42:31;;;;;;;11.02;7.20;;;;;;;13.72;75.92;101516.47;5071842;28;20063;-61
2022/09/23 08:45:01;;;;;;;12.18;6.70;;;;;;;13.69;74.98;101520.00;5071648;28;20067;-60
2022/09/23 08:47:40;;;;;;;13.15;7.03;;;;;;;13.82;76.96;101521.59;5071569;28;20083;-62
2022/09/23 08:50:27;;;;;;;9.75;6.70;;;;;;;13.90;75.78;101516.19;5071779;28;20039;-61
2022/09/23 08:52:57;;;;;;;11.63;6.80;;;;;;;14.04;76.19;101511.53;5070185;28;20044;-62
2022/09/23 08:55:32;;;;;;;15.50;7.40;;;;;;;14.13;73.63;101518.44;5066743;28;20451;-60
2022/09/23 08:57:58;;;;;;;12.48;6.70;;;;;;;14.18;73.87;101525.38;5069210;28;20051;-60
2022/09/23 09:00:32;;;;;;;11.53;6.87;;;;;;;14.25;73.86;101519.06;5057942;28;20040;-59
2022/09/23 09:02:58;;;;;;;14.07;7.13;;;;;;;14.35;73.13;101513.66;5063472;28;20352;-60
2022/09/23 09:05:26;;;;;;;11.13;6.93;;;;;;;14.36;72.57;101513.63;5071539;28;20786;-60
2022/09/23 09:07:55;;;;;;;11.43;6.53;;;;;;;14.48;71.15;101512.56;5064957;28;20044;-59
2022/09/23 09:10:24;;;;;;;11.77;6.80;;;;;;;14.51;71.94;101504.63;5068225;28;20033;-59
2022/09/23 09:13:19;;;;;;;12.55;6.45;;;;;;;14.61;72.26;101506.16;5070180;28;20072;-57
2022/09/23 09:16:04;;;;;;;10.57;6.13;;;;;;;14.69;69.85;101506.91;5064581;28;20052;-60
2022/09/23 09:18:32;;;;;;;10.00;6.20;;;;;;;14.75;68.07;101501.47;5068650;28;20044;-59
2022/09/23 09:21:13;;;;;;;9.32;6.05;;;;;;;14.92;69.77;101491.47;5071072;28;20032;-58
2022/09/23 09:24:13;;;;;;;10.45;5.63;;;;;;;15.03;69.53;101499.16;5068594;28;20051;-59
2022/09/23 09:26:39;;;;;;;8.38;5.78;;;;;;;15.09;65.75;101498.16;5068176;28;20040;-62
2022/09/23 09:29:24;;;;;;;11.63;5.55;;;;;;;15.14;67.21;101498.91;5069891;28;20040;-59
2022/09/23 09:31:50;;;;;;;8.48;5.35;;;;;;;15.16;67.25;101500.63;5071328;28;20039;-58
2022/09/23 09:34:21;;;;;;;8.35;5.25;;;;;;;15.28;69.10;101499.47;5072807;28;20037;-58
2022/09/23 09:37:05;;;;;;;7.65;4.75;;;;;;;15.44;66.98;101498.22;5075459;28;20107;-59
2022/09/23 09:39:31;;;;;;;7.35;4.72;;;;;;;15.55;66.55;101487.44;5075534;28;20071;-60
2022/09/23 09:41:58;;;;;;;7.32;4.60;;;;;;;15.76;65.00;101480.81;5073079;28;20079;-59
2022/09/23 09:44:49;;;;;;;7.75;4.55;;;;;;;15.83;65.88;101485.91;5075513;28;20067;-59
2022/09/23 09:47:27;;;;;;;8.48;4.70;;;;;;;15.94;63.31;101490.91;5074604;28;20048;-60
2022/09/23 09:50:04;;;;;;;7.72;4.22;;;;;;;16.14;65.65;101482.47;5073505;28;20483;-59
2022/09/23 09:52:30;;;;;;;6.40;4.20;;;;;;;16.25;63.51;101461.94;5073373;28;20048;-60
2022/09/23 09:55:22;;;;;;;8.55;4.20;;;;;;;16.54;64.42;101477.84;5074020;28;20028;-59
2022/09/23 09:58:04;;;;;;;7.18;4.60;;;;;;;16.69;64.22;101484.50;5069424;28;20118;-59
2022/09/23 10:00:29;;;;;;;7.68;4.22;;;;;;;16.78;61.32;101480.75;5064730;28;20391;-60
2022/09/23 10:03:00;;;;;;;7.53;4.57;;;;;;;16.84;62.38;101480.56;5056462;28;20098;-58
2022/09/23 10:05:45;;;;;;;6.22;4.00;;;;;;;16.95;62.17;101473.19;5059216;28;20042;-58
2022/09/23 10:08:34;;;;;;;9.52;4.07;;;;;;;16.99;61.65;101474.81;5070333;28;20040;-58
2022/09/23 10:11:05;;;;;;;7.10;4.45;;;;;;;16.96;60.64;101475.81;5073469;28;20347;-58
2022/09/23 10:13:31;;;;;;;8.73;5.07;;;;;;;16.90;59.26;101461.88;5073052;28;20039;-58
2022/09/23 10:15:59;;;;;;;8.10;4.68;;;;;;;16.90;59.71;101461.88;5067085;28;20033;-58
2022/09/23 10:18:37;;;;;;;9.30;5.00;;;;;;;16.90;60.95;101468.03;5068647;28;20385;-59
2022/09/23 10:21:06;;;;;;;8.77;4.60;;;;;;;16.93;61.37;101470.59;5072544;28;20096;-60
2022/09/23 10:23:32;;;;;;;8.00;4.78;;;;;;;17.04;59.62;101455.25;5071088;28;20036;-61
2022/09/23 10:26:01;;;;;;;9.00;4.32;;;;;;;17.07;57.90;101458.72;5059036;28;20087;-59
2022/09/23 10:28:31;;;;;;;8.35;4.20;;;;;;;17.14;59.71;101457.66;5071147;28;20044;-60
2022/09/23 10:31:05;;;;;;;8.90;4.55;;;;;;;17.18;58.97;101460.13;5057202;28;20036;-55
2022/09/23 10:33:30;;;;;;;9.05;4.65;;;;;;;17.22;57.26;101460.91;5068085;28;20033;-60
2022/09/23 10:35:56;;;;;;;7.75;4.32;;;;;;;17.23;58.36;101460.00;5074196;28;20047;-61
2022/09/23 10:38:22;;;;;;;8.00;4.63;;;;;;;17.24;59.05;101457.31;5074297;28;20123;-61
2022/09/23 10:46:46;;;;;;;7.22;4.40;;;;;;;17.16;57.50;101471.66;5073820;28;20146;-61
2022/09/23 10:49:36;;;;;;;7.10;4.15;;;;;;;17.15;55.45;101470.78;5074346;28;20043;-61
2022/09/23 10:52:31;;;;;;;8.75;4.05;;;;;;;17.17;56.51;101465.47;5074211;28;20501;-59
2022/09/23 10:55:18;;;;;;;8.73;4.30;;;;;;;17.33;58.08;101461.41;5074179;28;20039;-60
2022/09/23 10:58:03;;;;;;;6.95;4.47;;;;;;;17.32;55.70;101462.34;5074155;28;20028;-61
2022/09/23 11:00:50;;;;;;;11.43;4.60;;;;;;;17.37;57.56;101460.41;5073894;28;20029;-60
2022/09/23 11:03:23;;;;;;;7.40;4.28;;;;;;;17.42;57.25;101457.63;5073612;28;20115;-61
2022/09/23 11:06:10;;;;;;;7.13;4.20;;;;;;;17.50;58.66;101455.59;5074036;28;20045;-61
2022/09/23 11:09:01;;;;;;;7.25;4.10;;;;;;;17.53;57.80;101452.84;5073703;28;20050;-60
2022/09/23 11:11:57;;;;;;;9.55;4.00;;;;;;;17.60;58.83;101455.25;5073692;28;20043;-60
2022/09/23 11:14:47;;;;;;;7.93;4.03;;;;;;;17.54;58.03;101458.09;5074052;28;20044;-61
2022/09/23 11:17:52;;;;;;;6.93;3.85;;;;;;;17.68;59.11;101452.38;5073619;28;20064;-61
2022/09/23 11:20:37;;;;;;;6.38;3.67;;;;;;;17.73;57.56;101439.88;5073655;28;20055;-61
2022/09/23 11:23:19;;;;;;;6.18;3.90;;;;;;;17.82;56.04;101449.28;5073648;28;20043;-62
2022/09/23 11:25:53;;;;;;;9.27;4.32;;;;;;;17.87;55.27;101447.34;5073555;28;20040;-61
2022/09/23 11:28:36;;;;;;;8.55;4.28;;;;;;;17.95;57.33;101445.31;5073245;28;20359;-61
2022/09/23 11:31:05;;;;;;;5.85;3.45;;;;;;;17.93;54.97;101448.00;5073378;28;20078;-61
2022/09/23 11:34:06;;;;;;;9.30;3.40;;;;;;;17.96;56.95;101439.09;5073420;28;20328;-61
2022/09/23 11:36:38;;;;;;;6.43;3.70;;;;;;;18.02;56.17;101438.88;5073344;28;20461;-60
2022/09/23 11:39:16;;;;;;;8.77;3.78;;;;;;;17.95;56.30;101440.00;5073362;28;20032;-60
2022/09/23 11:41:43;;;;;;;6.15;3.70;;;;;;;17.87;55.69;101432.31;5073161;28;20047;-60
2022/09/23 11:44:27;;;;;;;7.70;3.40;;;;;;;18.00;57.02;101424.84;5073092;28;20466;-61
2022/09/23 11:47:02;;;;;;;7.38;3.83;;;;;;;17.97;54.51;101424.94;5072781;28;20071;-61